Time;durP1;ratioP1;P1;durP2;ratioP2;P2;SDS_P1;SDS_P2;PMS_P1;PMS_P2;Temp;Humidity;BMP_temperature;BMP_pressure;BME280_temperature;BME280_humidity;BME280_pressure;Samples;Min_cycle;Max_cycle;Signal;HPM_P1;HPM_P2
2023/03/05 00:00:17;;;;;;;22.97;15.30;;;;;;;3.21;nan;98410.94;5056073;28;20209;-73
2023/03/05 00:02:43;;;;;;;24.93;15.73;;;;;;;3.20;nan;98415.38;5056151;28;20225;-73
2023/03/05 00:05:10;;;;;;;24.70;15.50;;;;;;;3.22;nan;98402.91;5056360;28;20201;-73
2023/03/05 00:07:36;;;;;;;25.97;16.43;;;;;;;3.20;nan;98411.94;5056208;28;20212;-73
2023/03/05 00:10:05;;;;;;;24.03;16.23;;;;;;;3.22;nan;98412.59;5055899;28;20219;-73
2023/03/05 00:12:31;;;;;;;24.10;16.17;;;;;;;3.23;nan;98414.22;5055873;28;20229;-73
2023/03/05 00:14:58;;;;;;;26.93;15.73;;;;;;;3.25;nan;98410.44;5056019;28;20213;-73
2023/03/05 00:17:24;;;;;;;27.17;16.53;;;;;;;3.23;nan;98414.22;5056084;28;20205;-73
2023/03/05 00:19:50;;;;;;;23.47;15.70;;;;;;;3.23;nan;98404.53;5055902;28;20209;-73
2023/03/05 00:22:17;;;;;;;31.13;16.77;;;;;;;3.23;nan;98408.97;5064286;28;20236;-73
2023/03/05 00:24:43;;;;;;;24.63;15.53;;;;;;;3.27;nan;98410.28;5061861;28;20209;-73
2023/03/05 00:27:09;;;;;;;26.17;15.57;;;;;;;3.28;nan;98402.25;5056065;28;20212;-73
2023/03/05 00:29:36;;;;;;;22.30;14.80;;;;;;;3.29;nan;98401.25;5059589;28;20211;-73
2023/03/05 00:32:03;;;;;;;23.47;15.33;;;;;;;3.27;nan;98399.78;5075692;28;20232;-73
2023/03/05 00:34:31;;;;;;;23.23;15.70;;;;;;;3.29;nan;98387.31;5064540;28;20211;-73
2023/03/05 00:36:58;;;;;;;20.90;14.03;;;;;;;3.29;nan;98401.25;5055250;28;20244;-73
2023/03/05 00:39:25;;;;;;;25.17;15.50;;;;;;;3.32;nan;98400.94;5055860;28;20283;-73
2023/03/05 00:41:51;;;;;;;23.53;15.00;;;;;;;3.26;nan;98401.56;5055261;28;20665;-73
2023/03/05 00:44:18;;;;;;;24.03;14.77;;;;;;;3.30;nan;98399.44;5055604;28;20201;-73
2023/03/05 00:46:44;;;;;;;24.27;15.13;;;;;;;3.27;nan;98394.53;5055738;28;20233;-73
2023/03/05 00:49:11;;;;;;;29.87;16.07;;;;;;;3.28;nan;98397.00;5072305;28;20234;-74
2023/03/05 00:51:37;;;;;;;23.63;15.87;;;;;;;3.31;nan;98387.94;5073684;28;20204;-73
2023/03/05 00:54:04;;;;;;;26.60;17.13;;;;;;;3.33;nan;98388.59;5068035;28;20212;-73
2023/03/05 00:56:31;;;;;;;26.27;15.40;;;;;;;3.31;nan;98385.31;5055206;28;20232;-73
2023/03/05 00:58:57;;;;;;;25.97;15.07;;;;;;;3.38;nan;98381.03;5055249;28;20202;-73
2023/03/05 01:01:25;;;;;;;22.90;15.73;;;;;;;3.31;nan;98378.28;5055398;28;20201;-73
2023/03/05 01:03:51;;;;;;;25.00;15.50;;;;;;;3.32;nan;98379.06;5054928;28;20296;-73
2023/03/05 01:06:18;;;;;;;26.93;15.30;;;;;;;3.31;nan;98377.44;5053962;28;20205;-73
2023/03/05 01:08:45;;;;;;;21.30;14.00;;;;;;;3.30;nan;98370.56;5055102;28;20204;-73
2023/03/05 01:11:12;;;;;;;23.47;14.97;;;;;;;3.37;nan;98372.34;5055349;28;20208;-73
2023/03/05 01:13:39;;;;;;;22.57;15.50;;;;;;;3.34;nan;98370.03;5055595;28;20229;-73
2023/03/05 01:16:06;;;;;;;26.63;17.03;;;;;;;3.29;nan;98366.28;5054796;28;20236;-73
2023/03/05 01:18:32;;;;;;;26.97;17.90;;;;;;;3.30;nan;98365.31;5054616;28;20216;-73
2023/03/05 01:20:59;;;;;;;28.03;17.20;;;;;;;3.27;nan;98363.81;5054708;28;20224;-73
2023/03/05 01:23:25;;;;;;;24.97;17.33;;;;;;;3.27;nan;98361.19;5054124;28;20240;-73
2023/03/05 01:25:56;;;;;;;23.80;16.47;;;;;;;3.29;nan;98359.22;5054825;28;20208;-73
2023/03/05 01:28:23;;;;;;;26.27;16.67;;;;;;;3.32;nan;98355.44;5054642;28;20673;-73
2023/03/05 01:30:50;;;;;;;24.63;16.43;;;;;;;3.32;nan;98353.63;5054209;28;20205;-73
2023/03/05 01:33:16;;;;;;;26.63;16.87;;;;;;;3.30;nan;98352.97;5054509;28;20712;-73
2023/03/05 01:35:42;;;;;;;22.60;15.67;;;;;;;3.29;nan;98353.16;5053887;28;20257;-73
2023/03/05 01:38:09;;;;;;;24.93;16.13;;;;;;;3.31;nan;98343.28;5054721;28;20216;-73
2023/03/05 01:40:35;;;;;;;26.23;16.33;;;;;;;3.31;nan;98336.25;5054496;28;20231;-73
2023/03/05 01:43:11;;;;;;;25.87;16.20;;;;;;;3.30;nan;98341.66;5053875;28;20591;-73
2023/03/05 01:45:39;;;;;;;26.90;16.40;;;;;;;3.36;nan;98336.56;5054368;28;20205;-73
2023/03/05 01:48:06;;;;;;;29.13;16.70;;;;;;;3.32;nan;98344.91;5054582;28;20209;-73
2023/03/05 01:50:33;;;;;;;24.13;16.77;;;;;;;3.21;nan;98329.50;5054468;28;20209;-73
2023/03/05 01:53:03;;;;;;;26.70;17.47;;;;;;;3.24;nan;98332.63;5053921;28;20238;-73
2023/03/05 01:55:36;;;;;;;25.27;16.27;;;;;;;3.26;nan;98332.47;5069870;28;20211;-73
2023/03/05 01:58:11;;;;;;;28.33;16.93;;;;;;;3.30;nan;98324.06;5059265;28;20202;-73
2023/03/05 02:00:45;;;;;;;26.23;16.63;;;;;;;3.30;nan;98323.25;5054400;28;20193;-73
2023/03/05 02:03:13;;;;;;;27.13;17.80;;;;;;;3.25;nan;98322.94;5054002;28;20232;-73
2023/03/05 02:05:42;;;;;;;26.80;16.60;;;;;;;3.32;nan;98324.72;5053600;28;20209;-73
2023/03/05 02:08:14;;;;;;;22.97;16.23;;;;;;;3.30;nan;98321.44;5053973;28;20201;-73
2023/03/05 02:10:45;;;;;;;24.63;15.73;;;;;;;3.32;nan;98310.75;5054218;28;20201;-73
2023/03/05 02:13:18;;;;;;;26.23;16.17;;;;;;;3.31;nan;98306.50;5053819;28;20644;-73
2023/03/05 02:15:46;;;;;;;28.47;18.10;;;;;;;3.29;nan;98309.28;5053399;28;20243;-73
2023/03/05 02:18:12;;;;;;;29.23;18.10;;;;;;;3.31;nan;98302.06;5053437;28;20201;-73
2023/03/05 02:20:47;;;;;;;27.33;17.37;;;;;;;3.31;nan;98302.06;5054036;28;20205;-73
2023/03/05 02:23:14;;;;;;;28.13;17.90;;;;;;;3.25;nan;98297.47;5053624;28;20248;-73
2023/03/05 02:25:41;;;;;;;30.27;18.20;;;;;;;3.23;nan;98296.00;5067669;28;20205;-73
2023/03/05 02:28:24;;;;;;;28.20;16.90;;;;;;;3.28;nan;98296.31;5067365;28;20215;-73
2023/03/05 02:30:51;;;;;;;30.60;17.73;;;;;;;3.22;nan;98297.81;5073938;28;20188;-73
2023/03/05 02:33:19;;;;;;;33.37;18.73;;;;;;;3.17;nan;98296.69;5071763;28;20220;-73
2023/03/05 02:35:46;;;;;;;29.00;17.43;;;;;;;3.23;nan;98298.63;5071252;28;20205;-73
2023/03/05 02:38:18;;;;;;;28.10;18.40;;;;;;;3.21;nan;98295.34;5073551;28;20205;-73
2023/03/05 02:40:44;;;;;;;31.20;18.23;;;;;;;3.20;nan;98289.28;5071848;28;20204;-73
2023/03/05 02:43:11;;;;;;;27.67;17.73;;;;;;;3.19;nan;98287.63;5073289;28;20225;-72
2023/03/05 02:45:38;;;;;;;29.20;18.17;;;;;;;3.21;nan;98285.66;5056551;28;20207;-72
2023/03/05 02:48:05;;;;;;;29.37;18.67;;;;;;;3.23;nan;98280.25;5055216;28;20220;-73
2023/03/05 02:50:32;;;;;;;27.93;18.10;;;;;;;3.13;nan;98277.81;5073615;28;20208;-73
2023/03/05 02:52:59;;;;;;;26.07;18.37;;;;;;;3.15;nan;98280.25;5071544;28;20228;-73
2023/03/05 02:55:25;;;;;;;29.87;18.13;;;;;;;3.20;nan;98276.13;5073504;28;20212;-73
2023/03/05 02:57:52;;;;;;;29.97;17.63;;;;;;;3.17;nan;98278.28;5072222;28;20718;-73
2023/03/05 03:00:18;;;;;;;29.13;17.83;;;;;;;3.16;nan;98266.94;5053291;28;20213;-73
2023/03/05 03:02:44;;;;;;;31.57;17.43;;;;;;;3.22;nan;98266.31;5053385;28;20228;-73
2023/03/05 03:05:11;;;;;;;25.03;16.10;;;;;;;3.21;nan;98255.97;5053079;28;20205;-73
2023/03/05 03:07:37;;;;;;;29.77;18.43;;;;;;;3.18;nan;98264.16;5053382;28;20205;-73
2023/03/05 03:10:04;;;;;;;27.87;17.77;;;;;;;3.17;nan;98257.28;5052523;28;20205;-73
2023/03/05 03:12:31;;;;;;;27.00;17.33;;;;;;;3.21;nan;98261.22;5052875;28;20247;-73
2023/03/05 03:14:57;;;;;;;29.07;18.27;;;;;;;3.19;nan;98257.91;5052180;28;20213;-73
2023/03/05 03:17:23;;;;;;;27.30;17.23;;;;;;;3.30;nan;98254.94;5053200;28;20213;-73
2023/03/05 03:19:50;;;;;;;29.07;17.30;;;;;;;3.23;nan;98252.16;5067567;28;20211;-73
2023/03/05 03:22:16;;;;;;;26.23;17.07;;;;;;;3.21;nan;98248.06;5072929;28;20224;-73
2023/03/05 03:24:43;;;;;;;28.33;16.80;;;;;;;3.22;nan;98249.72;5057238;28;20205;-73
2023/03/05 03:27:10;;;;;;;27.77;17.03;;;;;;;3.23;nan;98256.59;5053127;28;20208;-73
2023/03/05 03:29:37;;;;;;;24.53;13.60;;;;;;;3.24;nan;98253.81;5066193;28;20227;-73
2023/03/05 03:32:03;;;;;;;19.40;12.50;;;;;;;3.29;nan;98248.06;5077118;28;20236;-73
2023/03/05 03:34:30;;;;;;;21.30;13.23;;;;;;;3.29;nan;98243.59;5062883;28;20635;-73
2023/03/05 03:36:56;;;;;;;21.60;12.63;;;;;;;3.26;nan;98238.69;5056712;28;20592;-73
2023/03/05 03:39:24;;;;;;;18.53;11.43;;;;;;;3.31;nan;98225.88;5067279;28;20227;-73
2023/03/05 03:41:52;;;;;;;20.93;12.20;;;;;;;3.29;nan;98229.66;5076616;28;20232;-73
2023/03/05 03:44:20;;;;;;;19.00;11.00;;;;;;;3.30;nan;98229.47;5064968;28;20205;-72
2023/03/05 03:46:48;;;;;;;18.37;11.03;;;;;;;3.28;nan;98228.84;5056834;28;20201;-72
2023/03/05 03:49:16;;;;;;;19.50;11.20;;;;;;;3.26;nan;98224.75;5065430;28;20567;-73
2023/03/05 03:51:43;;;;;;;18.00;9.97;;;;;;;3.33;nan;98215.19;5076680;28;20218;-73
2023/03/05 03:54:09;;;;;;;19.93;10.43;;;;;;;3.33;nan;98210.75;5066192;28;20216;-73
2023/03/05 03:56:35;;;;;;;18.27;11.07;;;;;;;3.39;nan;98220.56;5057068;28;20225;-73
2023/03/05 03:59:02;;;;;;;20.27;11.13;;;;;;;3.30;nan;98218.16;5063438;28;20211;-73
2023/03/05 04:01:28;;;;;;;18.67;10.63;;;;;;;3.32;nan;98216.19;5076108;28;20675;-73
2023/03/05 04:03:55;;;;;;;15.80;10.03;;;;;;;3.37;nan;98208.59;5068402;28;20568;-73
2023/03/05 04:06:21;;;;;;;18.77;10.53;;;;;;;3.35;nan;98210.59;5056974;28;20205;-73
2023/03/05 04:08:47;;;;;;;17.40;9.43;;;;;;;3.38;nan;98208.44;5061086;28;20204;-73
2023/03/05 04:11:14;;;;;;;17.67;10.13;;;;;;;3.36;nan;98206.97;5076087;28;20200;-73
2023/03/05 04:13:41;;;;;;;17.17;10.43;;;;;;;3.37;nan;98203.34;5069608;28;20228;-73
2023/03/05 04:16:07;;;;;;;18.77;10.20;;;;;;;3.40;nan;98210.91;5055753;28;20563;-73
2023/03/05 04:18:34;;;;;;;19.30;9.80;;;;;;;3.40;nan;98203.00;5059409;28;20215;-73
2023/03/05 04:21:00;;;;;;;17.73;10.43;;;;;;;3.39;nan;98210.06;5076184;28;20212;-73
2023/03/05 04:23:26;;;;;;;16.20;10.27;;;;;;;3.43;nan;98208.72;5071903;28;20225;-72
2023/03/05 04:25:53;;;;;;;17.30;9.50;;;;;;;3.47;nan;98209.22;5056161;28;20211;-73
2023/03/05 04:28:19;;;;;;;16.20;9.73;;;;;;;3.42;nan;98196.59;5056806;28;20197;-73
2023/03/05 04:30:46;;;;;;;21.00;10.37;;;;;;;3.42;nan;98195.75;5076047;28;20208;-73
2023/03/05 04:33:12;;;;;;;17.67;10.13;;;;;;;3.45;nan;98195.44;5074578;28;20611;-73
2023/03/05 04:35:38;;;;;;;16.20;9.93;;;;;;;3.47;nan;98193.44;5059098;28;20567;-73
2023/03/05 04:38:05;;;;;;;18.17;9.83;;;;;;;3.47;nan;98199.53;5075392;28;20663;-73
2023/03/05 04:40:31;;;;;;;15.20;9.57;;;;;;;3.45;nan;98192.81;5073485;28;20652;-73
2023/03/05 04:42:58;;;;;;;16.93;9.57;;;;;;;3.49;nan;98191.47;5075493;28;20225;-73
2023/03/05 04:45:24;;;;;;;21.10;10.40;;;;;;;3.50;nan;98188.69;5071063;28;20207;-73
2023/03/05 04:47:50;;;;;;;20.27;10.17;;;;;;;3.48;nan;98193.28;5075605;28;20204;-73
2023/03/05 04:50:17;;;;;;;19.70;10.27;;;;;;;3.44;nan;98184.09;5073403;28;20212;-73
2023/03/05 04:52:45;;;;;;;16.73;10.37;;;;;;;3.45;nan;98187.56;5075496;28;20235;-73
2023/03/05 04:55:12;;;;;;;17.17;10.00;;;;;;;3.45;nan;98183.13;5072176;28;20209;-73
2023/03/05 04:57:39;;;;;;;16.33;10.50;;;;;;;3.56;nan;98190.63;5075562;28;20224;-73
2023/03/05 05:00:12;;;;;;;16.60;10.00;;;;;;;3.49;nan;98192.31;5073742;28;20537;-72
2023/03/05 05:02:39;;;;;;;18.30;10.30;;;;;;;3.50;nan;98187.84;5075443;28;20220;-73
2023/03/05 05:05:05;;;;;;;16.90;10.87;;;;;;;3.46;nan;98176.88;5071638;28;20213;-73
2023/03/05 05:07:32;;;;;;;17.77;10.60;;;;;;;3.47;nan;98178.50;5075226;28;20205;-73
2023/03/05 05:09:58;;;;;;;17.57;9.77;;;;;;;3.48;nan;98174.88;5073005;28;20656;-73
2023/03/05 05:12:29;;;;;;;19.23;10.47;;;;;;;3.46;nan;98174.25;5074692;28;20569;-73
2023/03/05 05:14:55;;;;;;;16.47;9.97;;;;;;;3.50;nan;98174.72;5071470;28;20212;-73
2023/03/05 05:17:21;;;;;;;18.33;10.10;;;;;;;3.45;nan;98172.63;5074678;28;20219;-73
2023/03/05 05:19:48;;;;;;;19.97;10.40;;;;;;;3.39;nan;98172.47;5072853;28;20652;-73
2023/03/05 05:22:14;;;;;;;17.80;9.87;;;;;;;3.41;nan;98176.56;5074849;28;20566;-73
2023/03/05 05:24:41;;;;;;;17.87;10.63;;;;;;;3.46;nan;98174.25;5073232;28;20211;-73
2023/03/05 05:27:07;;;;;;;15.97;10.57;;;;;;;3.47;nan;98164.53;5073459;28;20208;-73
2023/03/05 05:29:34;;;;;;;20.40;11.00;;;;;;;3.51;nan;98171.09;5073047;28;20197;-72
2023/03/05 05:32:00;;;;;;;19.63;11.37;;;;;;;3.47;nan;98170.63;5074668;28;20231;-73
2023/03/05 05:34:26;;;;;;;17.23;11.00;;;;;;;3.45;nan;98171.78;5072563;28;20649;-72
2023/03/05 05:36:53;;;;;;;19.43;11.90;;;;;;;3.47;nan;98175.03;5055967;28;20557;-73
2023/03/05 05:39:19;;;;;;;19.67;11.13;;;;;;;3.46;nan;98169.00;5055150;28;20215;-73
2023/03/05 05:41:46;;;;;;;18.63;11.10;;;;;;;3.40;nan;98172.31;5074230;28;20246;-72
2023/03/05 05:44:12;;;;;;;21.07;11.20;;;;;;;3.43;nan;98171.16;5073130;28;20204;-72
2023/03/05 05:46:39;;;;;;;17.63;10.53;;;;;;;3.47;nan;98178.50;5054412;28;20201;-72
2023/03/05 05:49:05;;;;;;;19.60;11.30;;;;;;;3.47;nan;98170.63;5054206;28;20672;-73
2023/03/05 05:51:31;;;;;;;19.70;11.07;;;;;;;3.43;nan;98174.56;5053321;28;20217;-72
2023/03/05 05:53:58;;;;;;;18.07;10.90;;;;;;;3.41;nan;98178.38;5053782;28;20201;-73
2023/03/05 05:56:24;;;;;;;20.40;11.63;;;;;;;3.42;nan;98172.13;5053580;28;20232;-72
2023/03/05 05:58:51;;;;;;;20.57;11.40;;;;;;;3.40;nan;98172.31;5054409;28;20209;-72
2023/03/05 06:01:27;;;;;;;16.93;11.57;;;;;;;3.41;nan;98166.06;5053372;28;20653;-73
2023/03/05 06:03:55;;;;;;;18.33;11.90;;;;;;;3.42;nan;98175.56;5054043;28;20698;-73
2023/03/05 06:06:23;;;;;;;19.90;12.07;;;;;;;3.55;nan;98164.50;5053878;28;20217;-73
2023/03/05 06:08:50;;;;;;;18.80;11.20;;;;;;;3.52;nan;98168.28;5054023;28;20202;-73
2023/03/05 06:11:17;;;;;;;16.67;11.30;;;;;;;3.52;nan;98168.28;5068399;28;20204;-73
2023/03/05 06:13:44;;;;;;;23.20;11.50;;;;;;;3.45;nan;98172.63;5073566;28;20255;-73
2023/03/05 06:16:15;;;;;;;23.80;12.73;;;;;;;3.48;nan;98177.50;5057116;28;20215;-72
2023/03/05 06:18:41;;;;;;;20.17;12.10;;;;;;;3.45;nan;98167.34;5053190;28;20214;-73
2023/03/05 06:21:12;;;;;;;21.50;12.00;;;;;;;3.51;nan;98168.47;5066178;28;20227;-73
2023/03/05 06:23:38;;;;;;;20.90;11.70;;;;;;;3.51;nan;98168.47;5072780;28;20239;-73
2023/03/05 06:26:07;;;;;;;19.90;11.07;;;;;;;3.43;nan;98168.53;5057964;28;20216;-72
2023/03/05 06:28:34;;;;;;;22.77;12.77;;;;;;;3.40;nan;98171.47;5052864;28;20212;-73
2023/03/05 06:31:06;;;;;;;19.30;12.07;;;;;;;3.48;nan;98172.25;5064829;28;20208;-72
2023/03/05 06:33:33;;;;;;;20.57;11.90;;;;;;;3.50;nan;98177.34;5051817;28;20221;-73
2023/03/05 06:36:00;;;;;;;20.27;11.67;;;;;;;3.58;nan;98172.06;5066549;28;20197;-73
2023/03/05 06:38:26;;;;;;;20.60;12.47;;;;;;;3.50;nan;98166.81;5051668;28;20221;-72
2023/03/05 06:40:52;;;;;;;20.87;12.10;;;;;;;3.51;nan;98163.19;5062528;28;20218;-73
2023/03/05 06:43:19;;;;;;;17.60;11.93;;;;;;;3.55;nan;98167.97;5072733;28;20247;-73
2023/03/05 06:45:45;;;;;;;19.23;12.40;;;;;;;3.49;nan;98168.66;5070898;28;20211;-72
2023/03/05 06:48:11;;;;;;;20.03;13.37;;;;;;;3.50;nan;98169.44;5072866;28;20223;-73
2023/03/05 06:50:38;;;;;;;18.40;12.47;;;;;;;3.49;nan;98167.81;5070624;28;20205;-73
2023/03/05 06:53:05;;;;;;;21.93;13.13;;;;;;;3.57;nan;98167.78;5072624;28;20227;-73
2023/03/05 06:55:38;;;;;;;19.53;12.03;;;;;;;3.57;nan;98165.97;5071321;28;20201;-73
2023/03/05 06:58:04;;;;;;;21.23;12.80;;;;;;;3.67;nan;98160.50;5071461;28;20235;-73
2023/03/05 07:00:31;;;;;;;21.17;12.70;;;;;;;3.65;nan;98165.09;5071444;28;20223;-73
2023/03/05 07:02:57;;;;;;;22.10;13.27;;;;;;;3.68;nan;98162.97;5072474;28;20589;-73
2023/03/05 07:05:23;;;;;;;19.07;12.37;;;;;;;3.57;nan;98165.16;5068513;28;20646;-73
2023/03/05 07:07:50;;;;;;;23.23;12.87;;;;;;;3.61;nan;98161.19;5058745;28;20568;-73
2023/03/05 07:10:16;;;;;;;22.87;13.00;;;;;;;3.61;nan;98155.94;5055523;28;20204;-72
2023/03/05 07:12:42;;;;;;;20.20;12.80;;;;;;;3.61;nan;98158.56;5072373;28;20221;-73
2023/03/05 07:15:09;;;;;;;18.97;12.70;;;;;;;3.62;nan;98157.56;5034326;28;1059734;-73
2023/03/05 07:17:35;;;;;;;19.77;13.03;;;;;;;3.65;nan;98154.56;5071630;28;20224;-73
2023/03/05 07:20:03;;;;;;;21.10;12.23;;;;;;;3.71;nan;98162.59;5071840;28;20208;-73
2023/03/05 07:22:30;;;;;;;21.83;12.50;;;;;;;3.64;nan;98155.56;5072856;28;20281;-73
2023/03/05 07:24:56;;;;;;;17.13;12.03;;;;;;;3.73;nan;98155.38;5072125;28;20543;-73
2023/03/05 07:27:24;;;;;;;22.97;12.90;;;;;;;3.71;nan;98154.72;5072372;28;20201;-73
2023/03/05 07:29:50;;;;;;;22.10;13.03;;;;;;;3.72;nan;98159.00;5072087;28;20329;-73
2023/03/05 07:32:17;;;;;;;22.23;12.87;;;;;;;3.68;nan;98148.97;5073276;28;20236;-73
2023/03/05 07:34:43;;;;;;;21.23;12.87;;;;;;;3.79;nan;98154.66;5071930;28;20212;-73
2023/03/05 07:37:09;;;;;;;20.17;12.13;;;;;;;3.77;nan;98147.94;5072089;28;20209;-73
2023/03/05 07:39:36;;;;;;;18.87;11.80;;;;;;;3.78;nan;98153.03;5071743;28;20209;-72
2023/03/05 07:42:02;;;;;;;21.67;13.33;;;;;;;3.81;nan;98143.97;5063641;28;20236;-73
2023/03/05 07:44:28;;;;;;;16.97;11.57;;;;;;;3.85;nan;98137.38;5058343;28;20208;-73
2023/03/05 07:46:55;;;;;;;21.90;12.27;;;;;;;3.92;nan;98143.56;5059685;28;20205;-74
2023/03/05 07:49:22;;;;;;;20.07;13.13;;;;;;;3.81;nan;98144.81;5056850;28;20204;-73
2023/03/05 07:51:49;;;;;;;20.20;12.67;;;;;;;3.93;nan;98145.22;5062595;28;20232;-73
2023/03/05 07:54:15;;;;;;;20.47;13.20;;;;;;;3.87;nan;98156.41;5055060;28;20201;-73
2023/03/05 07:56:41;;;;;;;20.33;12.87;;;;;;;3.90;nan;98142.94;5072128;28;20223;-73
2023/03/05 07:59:11;;;;;;;20.87;12.27;;;;;;;3.94;nan;98152.13;5072189;28;20221;-73
2023/03/05 08:01:38;;;;;;;20.07;12.47;;;;;;;3.89;nan;98142.09;5072727;28;20558;-73
2023/03/05 08:04:06;;;;;;;19.53;12.60;;;;;;;3.94;nan;98149.47;5071736;28;20208;-73
2023/03/05 08:06:32;;;;;;;19.20;12.07;;;;;;;3.98;nan;98146.31;5071926;28;20227;-73
2023/03/05 08:08:59;;;;;;;17.10;11.07;;;;;;;4.14;nan;98145.38;5072573;28;20200;-73
2023/03/05 08:11:27;;;;;;;18.03;11.90;;;;;;;4.00;nan;98143.50;5071294;28;20209;-73
2023/03/05 08:13:53;;;;;;;20.50;12.43;;;;;;;4.16;nan;98149.47;5072723;28;20300;-73
2023/03/05 08:16:21;;;;;;;22.87;12.07;;;;;;;4.11;nan;98141.28;5061095;28;20215;-73
2023/03/05 08:18:48;;;;;;;22.40;12.13;;;;;;;4.25;nan;98139.72;5074660;28;20726;-73
2023/03/05 08:21:25;;;;;;;20.13;12.27;;;;;;;4.12;nan;98140.28;5075042;28;20235;-73
2023/03/05 08:23:52;;;;;;;24.90;11.90;;;;;;;4.12;nan;98137.66;5075865;28;20715;-73
2023/03/05 08:26:21;;;;;;;19.97;13.20;;;;;;;4.29;nan;98144.44;5067841;28;20208;-73
2023/03/05 08:28:48;;;;;;;19.57;12.20;;;;;;;4.27;nan;98140.34;5055921;28;20212;-73
2023/03/05 08:31:16;;;;;;;18.83;12.10;;;;;;;4.15;nan;98141.75;5071250;28;20209;-73
2023/03/05 08:33:43;;;;;;;18.70;11.23;;;;;;;4.24;nan;98135.41;5075930;28;20235;-73
2023/03/05 08:36:10;;;;;;;22.90;13.17;;;;;;;4.18;nan;98138.78;5073365;28;20200;-73
2023/03/05 08:38:36;;;;;;;20.23;11.90;;;;;;;4.16;nan;98141.56;5075443;28;20224;-73
2023/03/05 08:41:03;;;;;;;21.93;12.37;;;;;;;4.29;nan;98138.38;5074526;28;20234;-73
2023/03/05 08:43:30;;;;;;;17.77;11.87;;;;;;;4.30;nan;98134.72;5075674;28;20302;-73
2023/03/05 08:45:56;;;;;;;19.13;11.87;;;;;;;4.65;nan;98139.34;5074664;28;20253;-73
2023/03/05 08:48:23;;;;;;;20.80;12.50;;;;;;;4.69;nan;98136.16;5073902;28;20197;-73
2023/03/05 08:50:49;;;;;;;18.03;11.57;;;;;;;4.57;nan;98129.69;5075633;28;20201;-73
2023/03/05 08:53:16;;;;;;;18.90;12.07;;;;;;;4.63;nan;98125.53;5074394;28;20225;-73
2023/03/05 08:55:42;;;;;;;18.13;11.83;;;;;;;4.98;nan;98127.47;5074406;28;20285;-73
2023/03/05 08:58:08;;;;;;;17.73;11.70;;;;;;;4.68;nan;98126.63;5074034;28;20671;-73
2023/03/05 09:00:35;;;;;;;19.60;12.30;;;;;;;4.80;nan;98130.44;5075007;28;20681;-73
2023/03/05 09:03:01;;;;;;;18.23;11.43;;;;;;;4.95;nan;98126.00;5072826;28;20217;-73
2023/03/05 09:05:27;;;;;;;18.70;12.43;;;;;;;4.72;nan;98129.72;5062656;28;20202;-73
2023/03/05 09:07:54;;;;;;;17.80;12.13;;;;;;;4.67;nan;98126.81;5060788;28;20197;-73
2023/03/05 09:10:20;;;;;;;20.10;12.37;;;;;;;4.49;nan;98121.06;5054389;28;20205;-75
2023/03/05 09:12:48;;;;;;;19.40;12.30;;;;;;;4.54;nan;98121.34;5061567;28;20232;-73
2023/03/05 09:15:14;;;;;;;18.33;11.83;;;;;;;4.83;nan;98114.28;5074580;28;20679;-73
2023/03/05 09:17:41;;;;;;;19.50;12.63;;;;;;;4.80;nan;98119.91;5064808;28;20221;-73
2023/03/05 09:20:11;;;;;;;17.57;11.07;;;;;;;4.70;nan;98118.56;5054733;28;20201;-73
2023/03/05 09:22:37;;;;;;;19.53;12.20;;;;;;;4.78;nan;98111.38;5057453;28;20720;-73
2023/03/05 09:25:04;;;;;;;17.13;12.07;;;;;;;4.94;nan;98115.66;5074742;28;20250;-73
2023/03/05 09:27:36;;;;;;;20.47;12.17;;;;;;;4.91;nan;98110.75;5073845;28;20205;-73
2023/03/05 09:30:03;;;;;;;19.30;12.10;;;;;;;5.18;nan;98110.91;5069733;28;20273;-73
2023/03/05 09:32:30;;;;;;;16.60;11.67;;;;;;;4.86;nan;98107.84;5074313;28;20221;-73
2023/03/05 09:34:57;;;;;;;18.57;11.83;;;;;;;4.99;nan;98100.94;5074649;28;20573;-73
2023/03/05 09:37:23;;;;;;;22.67;13.63;;;;;;;5.03;nan;98094.31;5074254;28;20223;-73
2023/03/05 09:39:49;;;;;;;19.93;12.80;;;;;;;4.91;nan;98094.94;5069380;28;20581;-73
2023/03/05 09:42:39;;;;;;;19.97;11.57;;;;;;;5.28;nan;98093.00;5054266;28;20252;-73
2023/03/05 09:45:25;;;;;;;19.10;12.00;;;;;;;5.39;nan;98089.88;5050850;28;20710;-73
2023/03/05 09:48:01;;;;;;;24.33;12.80;;;;;;;5.27;nan;98094.00;5052858;28;20629;-73
2023/03/05 09:50:33;;;;;;;21.80;13.20;;;;;;;5.14;nan;98090.38;5054323;28;20193;-73
2023/03/05 09:53:04;;;;;;;19.47;13.20;;;;;;;5.24;nan;98090.91;5054413;28;20236;-73
2023/03/05 09:55:39;;;;;;;18.57;12.10;;;;;;;5.01;nan;98095.47;5054410;28;20193;-73
2023/03/05 09:58:12;;;;;;;20.03;12.57;;;;;;;4.94;nan;98082.22;5054545;28;20213;-73
2023/03/05 10:00:48;;;;;;;22.73;13.07;;;;;;;5.04;nan;98079.31;5054352;28;20570;-73
2023/03/05 10:03:18;;;;;;;18.47;12.30;;;;;;;4.97;nan;98086.31;5053837;28;20704;-73
2023/03/05 10:06:06;;;;;;;22.93;13.10;;;;;;;5.65;nan;98074.34;5058568;28;20207;-73
2023/03/05 10:09:06;;;;;;;19.87;12.83;;;;;;;4.99;nan;98077.22;5073877;28;20671;-73
2023/03/05 10:11:37;;;;;;;23.50;13.23;;;;;;;5.07;nan;98068.41;5073469;28;20199;-74
2023/03/05 10:14:04;;;;;;;22.10;12.73;;;;;;;5.17;nan;98072.41;5066511;28;20207;-73
2023/03/05 10:16:43;;;;;;;18.93;12.33;;;;;;;5.02;nan;98076.03;5053682;28;20219;-73
2023/03/05 10:19:41;;;;;;;22.90;13.27;;;;;;;4.97;nan;98075.78;5053513;28;20684;-73
2023/03/05 10:22:19;;;;;;;18.73;12.23;;;;;;;4.94;nan;98070.88;5052300;28;20224;-73
2023/03/05 10:24:57;;;;;;;21.17;12.73;;;;;;;5.04;nan;98074.03;5052620;28;20193;-73
2023/03/05 10:27:42;;;;;;;20.13;12.17;;;;;;;5.12;nan;98066.03;5053308;28;20727;-73
2023/03/05 10:30:34;;;;;;;18.53;12.17;;;;;;;5.11;nan;98059.94;5053726;28;20189;-73
2023/03/05 10:33:09;;;;;;;18.53;12.33;;;;;;;5.08;nan;98065.59;5053722;28;20221;-73
2023/03/05 10:35:57;;;;;;;18.40;11.63;;;;;;;5.04;nan;98064.31;5053707;28;20201;-72
2023/03/05 10:38:31;;;;;;;19.23;12.70;;;;;;;5.02;nan;98054.97;5053371;28;20214;-72
2023/03/05 10:41:07;;;;;;;19.77;11.90;;;;;;;5.12;nan;98050.22;5053261;28;20190;-73
2023/03/05 10:43:53;;;;;;;19.60;13.27;;;;;;;5.38;nan;98043.41;5053307;28;20224;-73
2023/03/05 10:46:26;;;;;;;19.40;11.97;;;;;;;5.57;nan;98048.06;5053419;28;20189;-72
2023/03/05 10:48:57;;;;;;;18.37;12.07;;;;;;;5.75;nan;98042.38;5066658;28;20208;-73
2023/03/05 10:51:40;;;;;;;16.80;11.37;;;;;;;5.45;nan;98040.84;5073267;28;20201;-73
2023/03/05 10:54:42;;;;;;;20.30;12.07;;;;;;;5.33;nan;98037.88;5074002;28;20196;-73
2023/03/05 10:57:22;;;;;;;20.87;12.20;;;;;;;5.52;nan;98044.38;5031116;28;20256;-72
2023/03/05 11:00:01;;;;;;;17.60;11.63;;;;;;;5.81;nan;98034.56;5068205;28;20554;-73
2023/03/05 11:02:28;;;;;;;19.97;11.83;;;;;;;5.55;nan;98044.00;5072989;28;20235;-73
2023/03/05 11:04:54;;;;;;;20.80;12.80;;;;;;;5.44;nan;98032.16;5072218;28;20208;-72
2023/03/05 11:07:21;;;;;;;21.20;13.37;;;;;;;5.04;nan;98031.88;5054891;28;20201;-73
2023/03/05 11:10:00;;;;;;;20.00;12.47;;;;;;;5.18;nan;98031.03;5053005;28;20251;-72
2023/03/05 11:12:28;;;;;;;21.80;13.00;;;;;;;5.12;nan;98024.69;5053237;28;20243;-72
2023/03/05 11:15:26;;;;;;;20.60;12.97;;;;;;;5.13;nan;98015.78;5053022;28;20213;-72
2023/03/05 11:18:25;;;;;;;21.73;13.33;;;;;;;4.91;nan;98018.53;5052999;28;20236;-72
2023/03/05 11:20:52;;;;;;;20.40;13.70;;;;;;;4.88;nan;98018.94;5040899;28;20751;-72
2023/03/05 11:23:24;;;;;;;21.50;13.23;;;;;;;4.57;nan;98024.38;5053558;28;20233;-72
2023/03/05 11:25:58;;;;;;;19.00;12.53;;;;;;;4.63;nan;98007.03;5052943;28;20209;-73
2023/03/05 11:28:36;;;;;;;22.40;12.93;;;;;;;4.65;nan;98010.34;5052947;28;20186;-72
2023/03/05 11:31:18;;;;;;;21.80;11.87;;;;;;;4.80;nan;98008.50;5052852;28;20193;-72
2023/03/05 11:34:02;;;;;;;20.70;13.23;;;;;;;4.77;nan;98003.56;5052769;28;20255;-72
2023/03/05 11:36:39;;;;;;;19.37;12.83;;;;;;;4.84;nan;98004.50;5053357;28;20194;-73
2023/03/05 11:39:06;;;;;;;19.90;12.50;;;;;;;4.65;nan;98002.44;5053391;28;20224;-72
2023/03/05 11:41:37;;;;;;;19.63;13.43;;;;;;;4.62;nan;97998.31;5052440;28;20306;-73
2023/03/05 11:44:24;;;;;;;21.47;14.87;;;;;;;4.68;nan;97994.16;5052768;28;20198;-72
2023/03/05 11:46:56;;;;;;;21.83;14.07;;;;;;;4.73;nan;97991.78;5051517;28;20193;-73
2023/03/05 11:49:28;;;;;;;20.43;12.77;;;;;;;4.77;nan;97988.59;5052758;28;20190;-73